This is the latest recevied weather packets stored in our database for station/object K6CED. If no packets are shown the sender has not sent any weather packets the latest 10 day(s).
| Time | Temp. | Humidity | Pressure | Rain* | Wind** | Luminosity | Snow |
|---|---|---|---|---|---|---|---|
| 1777313643 | 16.67° C | 47% | 1018.3 hPa | 0 mm | - | 1081 W/m² | - |
| 1777313341 | 16.11° C | 50% | 1018.4 hPa | 0 mm | - | 850 W/m² | - |
| 1777313037 | 16.67° C | 50% | 1018.3 hPa | 0 mm | - | 436 W/m² | - |
| 1777312733 | 16.11° C | 52% | 1018.2 hPa | 0 mm | - | 1105 W/m² | - |
| 1777312429 | 16.11° C | 54% | 1018.4 hPa | 0 mm | - | 363 W/m² | - |
| 1777312127 | 15.56° C | 51% | 1018.4 hPa | 0 mm | - | 312 W/m² | - |
| 1777311825 | 16.11° C | 51% | 1018.5 hPa | 0 mm | - | 286 W/m² | - |
| 1777311521 | 16.67° C | 50% | 1018.5 hPa | 0 mm | - | 312 W/m² | - |
| 1777311219 | 17.22° C | 49% | 1018.6 hPa | 0 mm | - | 959 W/m² | - |
| 1777310917 | 15.56° C | 53% | 1018.6 hPa | 0 mm | - | 533 W/m² | - |
| 1777310614 | 15° C | 53% | 1018.6 hPa | 0 mm | - | 571 W/m² | - |
| 1777310305 | 15° C | 55% | 1018.4 hPa | 0 mm | - | 272 W/m² | - |
| 1777310002 | 15° C | 56% | 1018.5 hPa | 0 mm | - | 258 W/m² | - |
| 1777309700 | 15° C | 56% | 1018.4 hPa | 0 mm | - | 273 W/m² | - |
| 1777309397 | 15° C | 55% | 1018.5 hPa | 0 mm | - | 258 W/m² | - |
| 1777309096 | 15° C | 56% | 1018.4 hPa | 0 mm | - | 254 W/m² | - |
| 1777308792 | 15° C | 55% | 1018.5 hPa | 0 mm | - | 281 W/m² | - |
| 1777308488 | 15° C | 55% | 1018.5 hPa | 0 mm | - | 363 W/m² | - |
| 1777308183 | 15.56° C | 54% | 1018.4 hPa | 0 mm | - | 894 W/m² | - |
| 1777307879 | 15° C | 54% | 1018.2 hPa | 0 mm | - | 788 W/m² | - |
| 1777307578 | 15.56° C | 54% | 1018.3 hPa | 0 mm | - | 506 W/m² | - |
| 1777307274 | 15.56° C | 56% | 1018.3 hPa | 0 mm | - | 556 W/m² | - |
| 1777306971 | 15.56° C | 57% | 1018.1 hPa | 0 mm | - | 613 W/m² | - |
| 1777306669 | 15.56° C | 58% | 1018.1 hPa | 0 mm | - | 589 W/m² | - |
| 1777306366 | 15° C | 60% | 1018.2 hPa | 0 mm | - | 562 W/m² | - |
* Rain latest hour (hover to see other rain measurements)
** Current wind speed in m/s (hover to see current wind gust speed)